Data for 07/05/2014

Time Sea-Level Adjusted Pressure Absolute Pressure Temperature Relative Humidity Dew Point   
(mb) (inHg) (mb) (inHg) (C) (F) (%) (C) (F)
00:05 1019 30.09 849 25.07 19.6 67.2 47 8.2 46.7
00:10 1020 30.12 849 25.07 18.8 65.9 49 7.9 46.2
00:15 1020 30.12 849 25.07 18.1 64.5 51 7.9 46.2
00:20 1019 30.09 849 25.07 17.2 63 52 7.4 45.4
00:25 1020 30.12 849 25.07 16.9 62.4 54 7.6 45.7
00:30 1020 30.12 849 25.07 17 62.6 52 7.2 45
00:35 1019 30.09 849 25.07 17 62.7 54 7.7 45.8
00:40 1019 30.09 849 25.07 16.5 61.6 55 7.5 45.5
00:45 1020 30.12 849 25.07 16.4 61.4 54 7.2 45
00:50 1020 30.12 849 25.07 16.3 61.4 54 7.2 44.9
00:55 1020 30.12 849 25.07 16.5 61.7 53 6.9 44.5
01:00 1020 30.12 849 25.07 16.7 62.1 53 7.1 44.9
01:05 1020 30.12 849 25.07 16.5 61.8 55 7.5 45.6
01:10 1020 30.12 849 25.07 16.5 61.6 51 6.5 43.7
01:15 1020 30.12 849 25.07 17.1 62.8 51 6.9 44.5
01:20 1020 30.12 849 25.07 17.2 63 51 7.2 45
01:25 1020 30.12 849 25.07 17 62.5 53 7.3 45.2
01:30 1020 30.12 849 25.07 16.8 62.2 54 7.4 45.2
01:35 1020 30.12 849 25.07 16.6 61.8 54 7.3 45.1
01:40 1020 30.12 849 25.07 16.5 61.6 54 7.3 45.1
01:45 1020 30.12 849 25.07 16.4 61.4 58 8.1 46.7
01:50 1020 30.12 849 25.07 15.9 60.7 57 7.6 45.6
01:55 1019 30.09 849 25.07 16 60.8 56 7.3 45.2
02:00 1019 30.09 849 25.07 15.9 60.6 57 7.5 45.4
02:05 1019 30.09 849 25.07 15.8 60.5 56 7.1 44.7
02:10 1019 30.09 849 25.07 16 60.8 56 7.3 45.2
02:15 1019 30.09 849 25.07 15.7 60.3 57 7.4 45.4
02:20 1019 30.09 849 25.07 15.5 59.9 58 7.4 45.2
02:25 1019 30.09 849 25.07 15.6 60 58 7.3 45.2
02:30 1019 30.09 849 25.07 15.7 60.2 57 7.3 45.2
02:35 1019 30.09 849 25.07 15.5 60 58 7.5 45.4
02:40 1019 30.09 849 25.07 15.3 59.6 59 7.4 45.4
02:45 1020 30.12 849 25.07 15.2 59.3 59 7.4 45.4
02:50 1019 30.09 849 25.07 15.3 59.5 58 7.2 44.9
02:55 1019 30.09 849 25.07 15.7 60.3 56 7.1 44.8
03:00 1019 30.09 849 25.07 16.1 61 54 7 44.7
03:05 1020 30.12 849 25.07 16.2 61.2 55 7.4 45.2
03:10 1020 30.12 849 25.07 16 60.8 56 7.4 45.2
03:15 1020 30.12 849 25.07 15.9 60.5 56 7.3 45.2
03:20 1020 30.12 849 25.07 15.7 60.3 57 7.4 45.3
03:25 1019 30.09 849 25.07 15.7 60.2 57 7.4 45.3
03:30 1019 30.09 849 25.07 15.7 60.3 56 7.2 44.9
03:35 1020 30.12 849 25.07 16 60.8 56 7.2 45
03:40 1020 30.12 849 25.07 16 60.9 56 7.3 45.1
03:45 1020 30.12 849 25.07 15.9 60.6 56 7.1 44.8
03:50 1019 30.09 849 25.07 15.9 60.6 55 7 44.6
03:55 1020 30.12 849 25.07 16 60.7 55 6.9 44.4
04:00 1020 30.12 849 25.07 15.9 60.7 55 6.9 44.4
04:05 1020 30.12 849 25.07 15.9 60.5 55 6.8 44.3
04:10 1020 30.12 849 25.07 15.8 60.4 55 6.9 44.4
04:15 1020 30.12 849 25.07 15.7 60.3 55 6.8 44.3
04:20 1020 30.12 849 25.07 15.7 60.2 55 6.8 44.3
04:25 1020 30.12 849 25.07 15.6 60.1 55 6.7 44
04:30 1020 30.12 849 25.07 15.6 60.1 56 6.9 44.4
04:35 1020 30.12 849 25.07 15.4 59.8 58 7.4 45.3
04:40 1020 30.12 849 25.07 15.7 60.2 56 6.9 44.5
04:45 1020 30.12 849 25.07 15.7 60.3 55 6.7 44.1
04:50 1020 30.12 849 25.07 15.8 60.4 53 6.4 43.6
04:55 1020 30.12 849 25.07 15.6 60.1 54 6.4 43.6
05:00 1020 30.12 849 25.07 15.5 59.8 55 6.5 43.6
05:05 1020 30.12 849 25.07 15.3 59.6 56 6.6 43.9
05:10 1020 30.12 849 25.07 15.1 59.1 58 6.9 44.4
05:15 1020 30.12 849 25.07 15.3 59.5 59 7.4 45.3
05:20 1020 30.12 849 25.07 15.7 60.2 53 6.3 43.4
05:25 1020 30.12 849 25.07 15.7 60.2 54 6.6 43.8
05:30 1020 30.12 850 25.1 15.8 60.4 53 6.4 43.6
05:35 1020 30.12 850 25.1 15.7 60.2 54 6.5 43.8
05:40 1020 30.12 850 25.1 15.6 60 56 6.9 44.4
05:45 1020 30.12 850 25.1 15 59.1 58 6.9 44.4
05:50 1020 30.12 850 25.1 14.8 58.6 59 7 44.6
05:55 1020 30.12 850 25.1 14.7 58.4 64 8 46.3
06:00 1020 30.12 850 25.1 14.8 58.7 60 7.2 45
06:05 1021 30.15 850 25.1 14.9 58.7 61 7.5 45.5
06:10 1021 30.15 850 25.1 15 59 60 7.4 45.4
06:15 1020 30.12 850 25.1 15.4 59.7 58 7.3 45.1
06:20 1021 30.15 850 25.1 15.7 60.3 56 6.9 44.5
06:25 1021 30.15 850 25.1 15.9 60.5 56 7.3 45.1
06:30 1021 30.15 850 25.1 15.9 60.6 57 7.6 45.6
06:35 1021 30.15 850 25.1 16.3 61.3 55 7.3 45.1
06:40 1021 30.15 850 25.1 16.7 62 55 7.6 45.7
06:45 1021 30.15 850 25.1 16.8 62.2 55 7.8 46
06:50 1021 30.15 850 25.1 17.4 63.4 54 8.1 46.6
06:55 1021 30.15 850 25.1 17.6 63.6 53 8 46.5
07:00 1021 30.15 850 25.1 17.9 64.2 55 8.8 47.9
07:05 1021 30.15 850 25.1 18.5 65.3 51 8.2 46.8
07:10 1021 30.15 850 25.1 18.6 65.4 51 8.3 46.9
07:15 1021 30.15 850 25.1 18.9 66 49 7.9 46.3
07:20 1021 30.15 850 25.1 19 66.2 50 8.4 47.2
07:25 1021 30.15 850 25.1 19.5 67 48 8.3 46.9
07:30 1021 30.15 850 25.1 19.9 67.8 45 7.7 45.9
07:35 1021 30.15 850 25.1 20.5 68.8 45 8.3 47
07:40 1021 30.15 850 25.1 21.2 70.1 43 8.2 46.8
07:45 1021 30.15 850 25.1 21.4 70.4 43 8.6 47.4
07:50 1021 30.15 850 25.1 21.1 70 45 8.7 47.7
07:55 1021 30.15 850 25.1 21.1 69.9 43 8.2 46.8
08:00 1021 30.15 851 25.13 21.7 71 43 8.6 47.6
08:05 1021 30.15 851 25.13 22.1 71.7 42 8.7 47.6
08:10 1021 30.15 851 25.13 21.6 70.8 43 8.4 47.2
08:15 1022 30.18 851 25.13 22 71.7 41 8.2 46.8
08:20 1021 30.15 851 25.13 22.5 72.5 40 8.6 47.4
08:25 1021 30.15 851 25.13 22.2 72 39 7.8 46
08:30 1021 30.15 851 25.13 22.1 71.8 37 7.1 44.8
08:35 1022 30.18 851 25.13 22.4 72.4 38 7.5 45.4
08:40 1022 30.18 851 25.13 23.1 73.6 37 7.7 45.9
08:45 1022 30.18 851 25.13 23.3 73.9 39 8.7 47.7
08:50 1022 30.18 851 25.13 22.7 72.8 40 8.4 47.2
08:55 1021 30.15 851 25.13 22.6 72.6 40 8.3 47
09:00 1022 30.18 851 25.13 22.9 73.3 40 8.7 47.6
09:05 1022 30.18 851 25.13 23.3 73.9 40 9 48.2
09:10 1022 30.18 851 25.13 24 75.2 39 9.5 49.1
09:15 1022 30.18 851 25.13 24.7 76.4 36 9 48.2
09:20 1022 30.18 851 25.13 25.2 77.4 34 8.5 47.3
09:25 1022 30.18 851 25.13 25.2 77.4 35 8.9 48
09:30 1022 30.18 851 25.13 25.2 77.4 35 8.9 48
09:35 1022 30.18 851 25.13 25.1 77.1 36 9 48.2
09:40 1022 30.18 851 25.13 25.4 77.6 34 8.8 47.8
09:45 1022 30.18 851 25.13 25.4 77.8 35 9.3 48.7
09:50 1022 30.18 851 25.13 25.9 78.5 36 9.8 49.6
09:55 1022 30.18 851 25.13 26.2 79.2 35 9.8 49.6
10:00 1022 30.18 851 25.13 26.2 79.1 34 9.2 48.5
10:05 1022 30.18 851 25.13 26 78.9 33 8.9 48.1
10:10 1022 30.18 851 25.13 25.8 78.4 33 8.6 47.5
10:15 1022 30.18 851 25.13 25.7 78.3 33 8.4 47.1
10:20 1022 30.18 851 25.13 25.4 77.7 35 9 48.1
10:25 1022 30.18 851 25.13 25.9 78.5 35 9.5 49.1
10:30 1022 30.18 851 25.13 24.7 76.5 38 9.6 49.3
10:35 1022 30.18 851 25.13 25.7 78.2 34 8.9 48
10:40 1022 30.18 851 25.13 26 78.8 37 10.5 50.9
10:45 1022 30.18 851 25.13 26.3 79.3 34 9.4 49
10:50 1022 30.18 851 25.13 27.1 80.7 31 9 48.2
10:55 1022 30.18 851 25.13 27.4 81.2 32 9.5 49.2
11:00 1022 30.18 851 25.13 27.3 81.2 32 9.4 48.9
11:05 1022 30.18 851 25.13 27.4 81.3 32 9.5 49.1
11:10 1022 30.18 851 25.13 27.1 80.8 30 8.2 46.8
11:15 1022 30.18 851 25.13 27.2 80.9 28 7.6 45.7
11:20 1022 30.18 851 25.13 27.8 82 26 7 44.6
11:25 1021 30.15 851 25.13 27.3 81.1 28 7.6 45.6
11:30 1021 30.15 851 25.13 26.9 80.4 29 7.6 45.7
11:35 1021 30.15 851 25.13 28.1 82.6 27 7.4 45.4
11:40 1021 30.15 851 25.13 28.2 82.8 27 7.9 46.2
11:45 1021 30.15 851 25.13 28.2 82.8 26 7.4 45.3
11:50 1021 30.15 851 25.13 28.8 83.8 24 6.8 44.2
11:55 1021 30.15 851 25.13 29.2 84.5 25 7.3 45.1
12:00 1021 30.15 851 25.13 28.6 83.5 26 7.5 45.4
12:05 1021 30.15 850 25.1 29.2 84.5 25 7.5 45.4
12:10 1021 30.15 850 25.1 28.4 83.1 28 8.3 47
12:15 1021 30.15 850 25.1 28.9 84 26 7.8 46
12:20 1021 30.15 850 25.1 29 84.2 26 8 46.5
12:25 1021 30.15 850 25.1 28.9 84.1 27 8.3 46.9
12:30 1021 30.15 850 25.1 29 84.2 26 7.7 45.9
12:35 1021 30.15 850 25.1 29.3 84.7 26 8 46.3
12:40 1021 30.15 850 25.1 28.5 83.4 25 6.9 44.4
12:45 1021 30.15 850 25.1 29.5 85.1 23 6.6 43.8
12:50 1021 30.15 850 25.1 29.8 85.6 24 7.4 45.3
12:55 1021 30.15 850 25.1 29.3 84.7 25 7.3 45.2
13:00 1021 30.15 850 25.1 29.4 84.8 25 7.7 45.9
13:05 1021 30.15 850 25.1 29.4 84.8 25 7.5 45.6
13:10 1021 30.15 850 25.1 29.9 85.8 24 7.6 45.7
13:15 1021 30.15 850 25.1 30.1 86.2 25 8.4 47.1
13:20 1021 30.15 850 25.1 30.4 86.7 24 7.9 46.3
13:25 1021 30.15 850 25.1 29.9 85.8 25 8.3 46.9
13:30 1021 30.15 850 25.1 30.1 86.1 24 7.8 46
13:35 1021 30.15 850 25.1 30.2 86.3 25 8.2 46.8
13:40 1021 30.15 850 25.1 29.7 85.4 24 7.5 45.4
13:45 1021 30.15 850 25.1 30 86.1 25 7.9 46.3
13:50 1021 30.15 850 25.1 30.7 87.3 24 8.2 46.7
13:55 1021 30.15 850 25.1 30.8 87.5 23 7.5 45.5
14:00 1021 30.15 850 25.1 31.6 88.8 22 7.4 45.4
14:05 1021 30.15 850 25.1 31.2 88.2 23 7.9 46.1
14:10 1021 30.15 850 25.1 30.4 86.6 23 7.1 44.7
14:15 1021 30.15 850 25.1 31.1 88 22 7.4 45.3
14:20 1021 30.15 850 25.1 30.7 87.2 22 7 44.7
14:25 1021 30.15 850 25.1 30.8 87.5 22 6.8 44.2
14:30 1021 30.15 850 25.1 30.2 86.4 23 6.9 44.5
14:35 1021 30.15 850 25.1 30.9 87.7 21 6.5 43.7
14:40 1021 30.15 850 25.1 30.8 87.5 21 6.2 43.1
14:45 1021 30.15 850 25.1 29.7 85.5 24 7 44.7
14:50 1021 30.15 850 25.1 29.3 84.8 23 6.3 43.3
14:55 1021 30.15 850 25.1 29.3 84.7 21 5.2 41.4
15:00 1021 30.15 850 25.1 29.3 84.7 23 6.3 43.4
15:05 1021 30.15 850 25.1 29.2 84.5 19 3.7 38.7
15:10 1021 30.15 850 25.1 29.3 84.7 17 1.8 35.2
15:15 1021 30.15 850 25.1 29.3 84.8 17 2.2 36
15:20 1021 30.15 850 25.1 29.3 84.7 16 1.4 34.5
15:25 1021 30.15 850 25.1 29.4 84.9 15 0.9 33.5
15:30 1021 30.15 850 25.1 29.6 85.3 14 0 32.1
15:35 1021 30.15 850 25.1 29.8 85.6 15 0.5 32.8
15:40 1021 30.15 850 25.1 30 86 14 0.3 32.6
15:45 1021 30.15 850 25.1 30.5 86.8 15 1.2 34.2
15:50 1021 30.15 850 25.1 30.6 87 16 2 35.5
15:55 1021 30.15 850 25.1 30.2 86.3 17 3.1 37.5
16:00 1021 30.15 850 25.1 29.8 85.6 17 2.3 36.1
16:05 1021 30.15 850 25.1 29.6 85.3 18 3.4 38.1
16:10 1021 30.15 850 25.1 29.6 85.2 19 4.1 39.4
16:15 1021 30.15 850 25.1 29.6 85.3 19 3.8 38.9
16:20 1021 30.15 850 25.1 29.6 85.3 19 3.6 38.5
16:25 1021 30.15 850 25.1 29.6 85.3 18 3.4 38.2
16:30 1021 30.15 850 25.1 29.5 85.2 19 3.8 38.9
16:35 1021 30.15 850 25.1 29.5 85 19 3.9 39.1
16:40 1021 30.15 850 25.1 29.6 85.3 20 4.4 39.9
16:45 1021 30.15 850 25.1 29.5 85.1 22 6.1 43.1
16:50 1021 30.15 850 25.1 29.1 84.3 23 6.4 43.4
16:55 1021 30.15 850 25.1 28.9 84.1 23 5.8 42.4
17:00 1021 30.15 850 25.1 29.2 84.5 27 8.7 47.7
17:05 1021 30.15 850 25.1 28 82.5 27 7.4 45.2
17:10 1021 30.15 850 25.1 28 82.3 26 7 44.6
17:15 1021 30.15 850 25.1 27.9 82.2 28 8 46.3
17:20 1021 30.15 850 25.1 27.8 82 27 7.6 45.7
17:25 1021 30.15 850 25.1 27.9 82.1 27 7.5 45.5
17:30 1021 30.15 850 25.1 28.1 82.5 25 6.6 43.9
17:35 1021 30.15 850 25.1 27.8 82 26 6.9 44.4
17:40 1021 30.15 850 25.1 27.7 81.9 26 6.8 44.2
17:45 1021 30.15 850 25.1 27.7 81.9 29 8.4 47.1
17:50 1021 30.15 850 25.1 27.8 82 29 8.4 47.1
17:55 1021 30.15 850 25.1 28.1 82.6 28 8.4 47
18:00 1021 30.15 850 25.1 28.1 82.7 27 7.7 45.8
18:05 1021 30.15 850 25.1 27.8 82.1 29 8.4 47.1
18:10 1021 30.15 850 25.1 27.7 81.8 27 7.4 45.3
18:15 1021 30.15 850 25.1 27.6 81.7 29 8.3 47
18:20 1021 30.15 850 25.1 27.8 82 29 8.5 47.4
18:25 1021 30.15 850 25.1 27.7 81.8 29 8.5 47.4
18:30 1021 30.15 850 25.1 27.7 81.8 29 8.3 47
18:35 1021 30.15 850 25.1 27.7 81.9 28 8 46.4
18:40 1021 30.15 850 25.1 27.6 81.6 29 8.1 46.5
18:45 1021 30.15 850 25.1 27.2 81 30 8.6 47.5
18:50 1021 30.15 850 25.1 27.1 80.8 31 8.8 47.9
18:55 1021 30.15 850 25.1 27.1 80.8 31 8.6 47.5
19:00 1021 30.15 850 25.1 27.2 80.9 32 9.2 48.5
19:05 1021 30.15 850 25.1 27.2 80.9 32 9.5 49.1
19:10 1021 30.15 850 25.1 27 80.6 30 8.2 46.7
19:15 1021 30.15 850 25.1 26.9 80.4 29 7.7 45.8
19:20 1021 30.15 850 25.1 26.7 80.1 29 7.7 45.9
19:25 1021 30.15 850 25.1 26.6 79.8 29 7.5 45.5
19:30 1021 30.15 850 25.1 26.4 79.5 30 7.7 45.8
19:35 1021 30.15 850 25.1 26.3 79.3 30 7.6 45.6
19:40 1021 30.15 850 25.1 26 78.9 30 7.3 45.2
19:45 1021 30.15 850 25.1 25.8 78.4 30 7 44.6
19:50 1021 30.15 850 25.1 25.6 78.1 29 6.8 44.2
19:55 1021 30.15 850 25.1 25.4 77.6 30 6.9 44.5
20:00 1021 30.15 850 25.1 25.1 77.2 30 6.7 44
20:05 1021 30.15 850 25.1 24.9 76.8 30 6.6 43.9
20:10 1021 30.15 851 25.13 24.6 76.3 31 6.6 43.8
20:15 1021 30.15 851 25.13 24.4 75.9 31 6.6 43.8
20:20 1022 30.18 851 25.13 23.9 75 40 9.6 49.3
20:25 1022 30.18 851 25.13 22.5 72.5 41 8.6 47.5
20:30 1022 30.18 851 25.13 22.2 72 42 8.7 47.7
20:35 1022 30.18 851 25.13 21.8 71.3 42 8.4 47.1
20:40 1022 30.18 851 25.13 21.8 71.2 35 5.8 42.4
20:45 1022 30.18 851 25.13 22.6 72.6 34 6.3 43.4
20:50 1022 30.18 851 25.13 22.4 72.2 37 7.1 44.7
20:55 1022 30.18 851 25.13 22.2 71.9 35 6 42.8
21:00 1022 30.18 852 25.16 22.4 72.2 35 6.5 43.8
21:05 1022 30.18 852 25.16 22.3 72.2 34 5.9 42.7
21:10 1022 30.18 852 25.16 22.4 72.2 34 5.9 42.6
21:15 1023 30.21 852 25.16 22.4 72.2 35 6.3 43.4
21:20 1023 30.21 852 25.16 22.3 72.1 34 5.7 42.3
21:25 1023 30.21 852 25.16 22.4 72.4 33 5.4 41.8
21:30 1023 30.21 852 25.16 22.5 72.5 34 5.9 42.7
21:35 1023 30.21 852 25.16 22.1 71.9 37 7 44.7
21:40 1023 30.21 852 25.16 21.3 70.3 41 7.8 46
21:45 1023 30.21 852 25.16 20.7 69.2 43 7.8 46
21:50 1023 30.21 852 25.16 20.1 68.2 47 8.7 47.7
21:55 1023 30.21 852 25.16 19 66.2 53 9.4 49
22:00 1023 30.21 852 25.16 18.6 65.4 52 8.7 47.6
22:05 1023 30.21 852 25.16 18.3 64.9 51 8.1 46.6
22:10 1023 30.21 852 25.16 18.2 64.7 52 8.2 46.7
22:15 1023 30.21 852 25.16 18.1 64.6 51 8.1 46.5
22:20 1023 30.21 852 25.16 18.2 64.8 51 8.1 46.5
22:25 1023 30.21 852 25.16 18.2 64.7 51 8.1 46.6
22:30 1023 30.21 852 25.16 18 64.4 52 8.1 46.5
22:35 1023 30.21 852 25.16 18.1 64.7 49 7.3 45.2
22:40 1023 30.21 852 25.16 18.7 65.6 46 6.8 44.3
22:45 1023 30.21 852 25.16 18.9 66 46 7.1 44.8
22:50 1023 30.21 852 25.16 18.9 65.9 46 7 44.7
22:55 1023 30.21 852 25.16 18.8 65.9 46 7 44.6
23:00 1023 30.21 852 25.16 18.7 65.7 45 6.6 43.9
23:05 1023 30.21 852 25.16 19 66.1 44 6.4 43.6
23:10 1023 30.21 852 25.16 19 66.1 44 6.7 44
23:15 1023 30.21 852 25.16 18.7 65.7 43 6.1 43
23:20 1023 30.21 852 25.16 18.8 65.9 44 6.6 43.8
23:25 1023 30.21 852 25.16 18.9 66 43 6.3 43.4
23:30 1023 30.21 852 25.16 18.8 65.8 45 6.8 44.2
23:35 1023 30.21 853 25.19 18.4 65.1 46 6.7 44
23:40 1023 30.21 853 25.19 18.4 65 49 7.6 45.7
23:45 1023 30.21 853 25.19 18.3 65 47 6.9 44.4
23:50 1023 30.21 853 25.19 18.3 65 46 6.7 44.1
23:55 1023 30.21 853 25.19 18.2 64.7 48 7 44.5
24:00 1023 30.21 853 25.19 17.9 64.2 49 7.1 44.7